sensor_id;sensor_type;location;lat;lon;timestamp;P1;durP1;ratioP1;P2;durP2;ratioP2
12784;SDS011;6456;42.680;23.260;2023-12-28T00:00:50;40.10;;;25.67;;
12784;SDS011;6456;42.680;23.260;2023-12-28T00:03:19;37.00;;;23.83;;
12784;SDS011;6456;42.680;23.260;2023-12-28T00:05:46;34.17;;;21.67;;
12784;SDS011;6456;42.680;23.260;2023-12-28T00:08:13;32.00;;;21.33;;
12784;SDS011;6456;42.680;23.260;2023-12-28T00:10:41;29.60;;;20.27;;
12784;SDS011;6456;42.680;23.260;2023-12-28T00:13:08;27.57;;;19.63;;
12784;SDS011;6456;42.680;23.260;2023-12-28T00:15:35;29.80;;;20.23;;
12784;SDS011;6456;42.680;23.260;2023-12-28T00:18:03;27.30;;;20.20;;
12784;SDS011;6456;42.680;23.260;2023-12-28T00:20:32;28.40;;;20.87;;
12784;SDS011;6456;42.680;23.260;2023-12-28T00:22:59;30.77;;;22.23;;
12784;SDS011;6456;42.680;23.260;2023-12-28T00:25:27;29.53;;;22.70;;
12784;SDS011;6456;42.680;23.260;2023-12-28T00:27:54;29.30;;;21.40;;
12784;SDS011;6456;42.680;23.260;2023-12-28T00:30:21;35.57;;;23.10;;
12784;SDS011;6456;42.680;23.260;2023-12-28T00:32:49;33.10;;;22.67;;
12784;SDS011;6456;42.680;23.260;2023-12-28T00:35:16;32.57;;;22.07;;
12784;SDS011;6456;42.680;23.260;2023-12-28T00:37:44;32.37;;;21.53;;
12784;SDS011;6456;42.680;23.260;2023-12-28T00:40:12;35.73;;;26.20;;
12784;SDS011;6456;42.680;23.260;2023-12-28T00:42:39;48.53;;;35.27;;
12784;SDS011;6456;42.680;23.260;2023-12-28T00:45:08;47.27;;;30.43;;
12784;SDS011;6456;42.680;23.260;2023-12-28T00:47:35;40.53;;;30.13;;
12784;SDS011;6456;42.680;23.260;2023-12-28T00:50:03;39.70;;;27.83;;
12784;SDS011;6456;42.680;23.260;2023-12-28T00:52:31;39.63;;;28.83;;
12784;SDS011;6456;42.680;23.260;2023-12-28T00:55:00;63.83;;;49.07;;
12784;SDS011;6456;42.680;23.260;2023-12-28T00:57:27;77.13;;;57.83;;
12784;SDS011;6456;42.680;23.260;2023-12-28T00:59:54;96.87;;;66.90;;
12784;SDS011;6456;42.680;23.260;2023-12-28T01:02:22;87.00;;;60.43;;
12784;SDS011;6456;42.680;23.260;2023-12-28T01:04:49;79.07;;;55.10;;
12784;SDS011;6456;42.680;23.260;2023-12-28T01:07:16;61.43;;;46.23;;
12784;SDS011;6456;42.680;23.260;2023-12-28T01:09:43;71.10;;;48.13;;
12784;SDS011;6456;42.680;23.260;2023-12-28T01:12:15;69.63;;;49.97;;
12784;SDS011;6456;42.680;23.260;2023-12-28T01:14:42;84.53;;;55.87;;
12784;SDS011;6456;42.680;23.260;2023-12-28T01:17:10;74.10;;;52.13;;
12784;SDS011;6456;42.680;23.260;2023-12-28T01:19:37;84.67;;;54.87;;
12784;SDS011;6456;42.680;23.260;2023-12-28T01:22:04;96.20;;;60.27;;
12784;SDS011;6456;42.680;23.260;2023-12-28T01:24:32;85.23;;;56.70;;
12784;SDS011;6456;42.680;23.260;2023-12-28T01:26:59;60.43;;;42.80;;
12784;SDS011;6456;42.680;23.260;2023-12-28T01:29:28;56.87;;;39.93;;
12784;SDS011;6456;42.680;23.260;2023-12-28T01:31:55;53.33;;;40.17;;
12784;SDS011;6456;42.680;23.260;2023-12-28T01:34:22;43.87;;;30.03;;
12784;SDS011;6456;42.680;23.260;2023-12-28T01:36:49;28.97;;;21.10;;
12784;SDS011;6456;42.680;23.260;2023-12-28T01:39:16;26.40;;;18.37;;
12784;SDS011;6456;42.680;23.260;2023-12-28T01:41:44;21.67;;;14.73;;
12784;SDS011;6456;42.680;23.260;2023-12-28T01:44:11;30.40;;;20.67;;
12784;SDS011;6456;42.680;23.260;2023-12-28T01:46:40;29.03;;;20.80;;
12784;SDS011;6456;42.680;23.260;2023-12-28T01:49:07;32.70;;;23.37;;
12784;SDS011;6456;42.680;23.260;2023-12-28T01:51:35;21.77;;;16.23;;
12784;SDS011;6456;42.680;23.260;2023-12-28T01:54:03;21.33;;;14.00;;
12784;SDS011;6456;42.680;23.260;2023-12-28T01:56:30;16.13;;;11.33;;
12784;SDS011;6456;42.680;23.260;2023-12-28T01:58:57;16.83;;;10.60;;
12784;SDS011;6456;42.680;23.260;2023-12-28T02:01:25;21.00;;;11.73;;
12784;SDS011;6456;42.680;23.260;2023-12-28T02:03:54;16.60;;;11.70;;
12784;SDS011;6456;42.680;23.260;2023-12-28T02:06:22;16.20;;;11.93;;
12784;SDS011;6456;42.680;23.260;2023-12-28T02:08:50;18.17;;;12.97;;
12784;SDS011;6456;42.680;23.260;2023-12-28T02:11:18;19.43;;;13.50;;
12784;SDS011;6456;42.680;23.260;2023-12-28T02:13:45;24.13;;;16.50;;
12784;SDS011;6456;42.680;23.260;2023-12-28T02:16:19;20.57;;;15.67;;
12784;SDS011;6456;42.680;23.260;2023-12-28T02:18:51;19.57;;;15.03;;
12784;SDS011;6456;42.680;23.260;2023-12-28T02:21:23;21.00;;;14.53;;
12784;SDS011;6456;42.680;23.260;2023-12-28T02:23:51;21.90;;;14.87;;
12784;SDS011;6456;42.680;23.260;2023-12-28T02:26:20;21.33;;;15.07;;
12784;SDS011;6456;42.680;23.260;2023-12-28T02:28:47;19.87;;;14.57;;
12784;SDS011;6456;42.680;23.260;2023-12-28T02:31:17;20.20;;;14.13;;
12784;SDS011;6456;42.680;23.260;2023-12-28T02:33:48;27.83;;;19.30;;
12784;SDS011;6456;42.680;23.260;2023-12-28T02:36:22;29.37;;;20.67;;
12784;SDS011;6456;42.680;23.260;2023-12-28T02:38:50;27.77;;;20.03;;
12784;SDS011;6456;42.680;23.260;2023-12-28T02:41:22;28.83;;;19.73;;
12784;SDS011;6456;42.680;23.260;2023-12-28T02:43:50;29.97;;;20.17;;
12784;SDS011;6456;42.680;23.260;2023-12-28T02:46:18;25.83;;;18.73;;
12784;SDS011;6456;42.680;23.260;2023-12-28T02:48:45;26.13;;;18.50;;
12784;SDS011;6456;42.680;23.260;2023-12-28T02:51:12;28.47;;;18.40;;
12784;SDS011;6456;42.680;23.260;2023-12-28T02:53:41;26.63;;;18.87;;
12784;SDS011;6456;42.680;23.260;2023-12-28T02:56:13;28.10;;;19.20;;
12784;SDS011;6456;42.680;23.260;2023-12-28T02:58:42;27.63;;;19.47;;
12784;SDS011;6456;42.680;23.260;2023-12-28T03:01:09;26.43;;;19.30;;
12784;SDS011;6456;42.680;23.260;2023-12-28T03:03:37;27.93;;;19.70;;
12784;SDS011;6456;42.680;23.260;2023-12-28T03:06:04;28.63;;;20.00;;
12784;SDS011;6456;42.680;23.260;2023-12-28T03:08:31;25.47;;;18.03;;
12784;SDS011;6456;42.680;23.260;2023-12-28T03:10:59;21.13;;;15.23;;
12784;SDS011;6456;42.680;23.260;2023-12-28T03:13:26;24.57;;;16.77;;
12784;SDS011;6456;42.680;23.260;2023-12-28T03:15:55;19.40;;;14.73;;
12784;SDS011;6456;42.680;23.260;2023-12-28T03:18:25;20.37;;;15.10;;
12784;SDS011;6456;42.680;23.260;2023-12-28T03:20:55;16.93;;;13.23;;
12784;SDS011;6456;42.680;23.260;2023-12-28T03:23:25;19.63;;;14.43;;
12784;SDS011;6456;42.680;23.260;2023-12-28T03:25:52;23.20;;;16.17;;
12784;SDS011;6456;42.680;23.260;2023-12-28T03:28:20;22.63;;;15.13;;
12784;SDS011;6456;42.680;23.260;2023-12-28T03:30:49;21.30;;;14.37;;
12784;SDS011;6456;42.680;23.260;2023-12-28T03:33:18;20.87;;;14.47;;
12784;SDS011;6456;42.680;23.260;2023-12-28T03:35:46;19.50;;;14.73;;
12784;SDS011;6456;42.680;23.260;2023-12-28T03:38:13;19.37;;;12.93;;
12784;SDS011;6456;42.680;23.260;2023-12-28T03:40:40;18.87;;;14.17;;
12784;SDS011;6456;42.680;23.260;2023-12-28T03:43:07;18.90;;;14.00;;
12784;SDS011;6456;42.680;23.260;2023-12-28T03:45:34;19.17;;;14.30;;
12784;SDS011;6456;42.680;23.260;2023-12-28T03:48:01;22.90;;;14.90;;
12784;SDS011;6456;42.680;23.260;2023-12-28T03:50:30;22.13;;;13.80;;
12784;SDS011;6456;42.680;23.260;2023-12-28T03:52:58;25.50;;;15.73;;
12784;SDS011;6456;42.680;23.260;2023-12-28T03:55:28;24.50;;;15.43;;
12784;SDS011;6456;42.680;23.260;2023-12-28T03:57:55;21.13;;;14.10;;
12784;SDS011;6456;42.680;23.260;2023-12-28T04:00:23;28.77;;;14.97;;
12784;SDS011;6456;42.680;23.260;2023-12-28T04:02:51;20.37;;;14.53;;
12784;SDS011;6456;42.680;23.260;2023-12-28T04:05:18;21.20;;;14.80;;
12784;SDS011;6456;42.680;23.260;2023-12-28T04:07:48;20.67;;;15.43;;
12784;SDS011;6456;42.680;23.260;2023-12-28T04:10:19;19.10;;;14.30;;
12784;SDS011;6456;42.680;23.260;2023-12-28T04:12:55;18.97;;;14.10;;
12784;SDS011;6456;42.680;23.260;2023-12-28T04:15:26;17.27;;;13.90;;
12784;SDS011;6456;42.680;23.260;2023-12-28T04:17:53;18.83;;;14.77;;
12784;SDS011;6456;42.680;23.260;2023-12-28T04:20:23;21.23;;;15.33;;
12784;SDS011;6456;42.680;23.260;2023-12-28T04:22:54;23.57;;;17.97;;
12784;SDS011;6456;42.680;23.260;2023-12-28T04:25:24;24.03;;;16.87;;
12784;SDS011;6456;42.680;23.260;2023-12-28T04:27:52;22.70;;;16.07;;
12784;SDS011;6456;42.680;23.260;2023-12-28T04:30:19;23.00;;;16.13;;
12784;SDS011;6456;42.680;23.260;2023-12-28T04:32:47;19.37;;;15.13;;
12784;SDS011;6456;42.680;23.260;2023-12-28T04:35:14;18.20;;;14.20;;
12784;SDS011;6456;42.680;23.260;2023-12-28T04:37:42;21.70;;;15.07;;
12784;SDS011;6456;42.680;23.260;2023-12-28T04:40:11;20.70;;;14.80;;
12784;SDS011;6456;42.680;23.260;2023-12-28T04:42:39;18.93;;;15.13;;
12784;SDS011;6456;42.680;23.260;2023-12-28T04:45:07;21.03;;;15.17;;
12784;SDS011;6456;42.680;23.260;2023-12-28T04:47:35;21.40;;;15.60;;
12784;SDS011;6456;42.680;23.260;2023-12-28T04:50:02;21.33;;;15.00;;
12784;SDS011;6456;42.680;23.260;2023-12-28T04:52:30;18.97;;;13.40;;
12784;SDS011;6456;42.680;23.260;2023-12-28T04:54:58;20.10;;;13.23;;
12784;SDS011;6456;42.680;23.260;2023-12-28T04:57:27;19.77;;;13.27;;
12784;SDS011;6456;42.680;23.260;2023-12-28T04:59:56;17.77;;;12.77;;
12784;SDS011;6456;42.680;23.260;2023-12-28T05:02:29;21.03;;;13.03;;
12784;SDS011;6456;42.680;23.260;2023-12-28T05:05:00;18.73;;;13.67;;
12784;SDS011;6456;42.680;23.260;2023-12-28T05:07:28;19.77;;;13.47;;
12784;SDS011;6456;42.680;23.260;2023-12-28T05:09:55;19.07;;;13.53;;
12784;SDS011;6456;42.680;23.260;2023-12-28T05:12:22;18.07;;;12.93;;
12784;SDS011;6456;42.680;23.260;2023-12-28T05:14:51;19.87;;;13.80;;
12784;SDS011;6456;42.680;23.260;2023-12-28T05:17:18;17.53;;;14.37;;
12784;SDS011;6456;42.680;23.260;2023-12-28T05:19:46;20.10;;;14.20;;
12784;SDS011;6456;42.680;23.260;2023-12-28T05:22:13;21.60;;;15.40;;
12784;SDS011;6456;42.680;23.260;2023-12-28T05:24:40;20.70;;;15.37;;
12784;SDS011;6456;42.680;23.260;2023-12-28T05:27:07;23.13;;;15.13;;
12784;SDS011;6456;42.680;23.260;2023-12-28T05:29:34;21.80;;;14.97;;
12784;SDS011;6456;42.680;23.260;2023-12-28T05:32:03;23.73;;;16.03;;
12784;SDS011;6456;42.680;23.260;2023-12-28T05:34:31;20.47;;;14.10;;
12784;SDS011;6456;42.680;23.260;2023-12-28T05:36:58;21.47;;;13.93;;
12784;SDS011;6456;42.680;23.260;2023-12-28T05:39:26;16.70;;;14.03;;
12784;SDS011;6456;42.680;23.260;2023-12-28T05:41:53;23.03;;;15.93;;
12784;SDS011;6456;42.680;23.260;2023-12-28T05:44:22;20.07;;;14.33;;
12784;SDS011;6456;42.680;23.260;2023-12-28T05:46:49;17.67;;;14.27;;
12784;SDS011;6456;42.680;23.260;2023-12-28T05:49:19;20.03;;;14.47;;
12784;SDS011;6456;42.680;23.260;2023-12-28T05:51:46;20.73;;;14.70;;
12784;SDS011;6456;42.680;23.260;2023-12-28T05:54:13;21.70;;;14.60;;
12784;SDS011;6456;42.680;23.260;2023-12-28T05:56:40;19.90;;;14.60;;
12784;SDS011;6456;42.680;23.260;2023-12-28T05:59:07;19.00;;;14.60;;
12784;SDS011;6456;42.680;23.260;2023-12-28T06:01:40;18.53;;;14.87;;
12784;SDS011;6456;42.680;23.260;2023-12-28T06:04:09;18.17;;;14.23;;
12784;SDS011;6456;42.680;23.260;2023-12-28T06:06:38;24.77;;;15.70;;
12784;SDS011;6456;42.680;23.260;2023-12-28T06:09:05;23.20;;;15.23;;
12784;SDS011;6456;42.680;23.260;2023-12-28T06:11:33;22.53;;;15.97;;
12784;SDS011;6456;42.680;23.260;2023-12-28T06:14:00;21.60;;;15.20;;
12784;SDS011;6456;42.680;23.260;2023-12-28T06:16:27;21.33;;;15.40;;
12784;SDS011;6456;42.680;23.260;2023-12-28T06:18:57;25.83;;;15.57;;
12784;SDS011;6456;42.680;23.260;2023-12-28T06:21:24;28.53;;;16.40;;
12784;SDS011;6456;42.680;23.260;2023-12-28T06:23:53;26.30;;;17.03;;
12784;SDS011;6456;42.680;23.260;2023-12-28T06:26:20;23.50;;;16.23;;
12784;SDS011;6456;42.680;23.260;2023-12-28T06:28:47;20.77;;;14.77;;
12784;SDS011;6456;42.680;23.260;2023-12-28T06:31:14;22.40;;;15.47;;
12784;SDS011;6456;42.680;23.260;2023-12-28T06:33:41;24.07;;;16.50;;
12784;SDS011;6456;42.680;23.260;2023-12-28T06:36:09;24.33;;;17.23;;
12784;SDS011;6456;42.680;23.260;2023-12-28T06:38:38;25.13;;;17.17;;
12784;SDS011;6456;42.680;23.260;2023-12-28T06:41:15;26.57;;;17.73;;
12784;SDS011;6456;42.680;23.260;2023-12-28T06:43:42;22.33;;;16.50;;
12784;SDS011;6456;42.680;23.260;2023-12-28T06:46:09;25.70;;;18.53;;
12784;SDS011;6456;42.680;23.260;2023-12-28T06:48:36;24.73;;;17.80;;
12784;SDS011;6456;42.680;23.260;2023-12-28T06:51:05;30.07;;;17.73;;
12784;SDS011;6456;42.680;23.260;2023-12-28T06:53:32;27.23;;;18.50;;
12784;SDS011;6456;42.680;23.260;2023-12-28T06:55:59;29.23;;;20.40;;
12784;SDS011;6456;42.680;23.260;2023-12-28T06:58:28;30.40;;;19.60;;
12784;SDS011;6456;42.680;23.260;2023-12-28T07:00:55;33.63;;;20.33;;
12784;SDS011;6456;42.680;23.260;2023-12-28T07:03:22;29.07;;;18.47;;
12784;SDS011;6456;42.680;23.260;2023-12-28T07:05:50;30.33;;;21.27;;
12784;SDS011;6456;42.680;23.260;2023-12-28T07:08:17;30.33;;;21.20;;
12784;SDS011;6456;42.680;23.260;2023-12-28T07:10:44;24.90;;;19.53;;
12784;SDS011;6456;42.680;23.260;2023-12-28T07:13:11;35.47;;;21.40;;
12784;SDS011;6456;42.680;23.260;2023-12-28T07:15:39;37.07;;;21.83;;
12784;SDS011;6456;42.680;23.260;2023-12-28T07:18:06;29.40;;;20.57;;
12784;SDS011;6456;42.680;23.260;2023-12-28T07:20:33;33.07;;;21.90;;
12784;SDS011;6456;42.680;23.260;2023-12-28T07:23:00;33.43;;;23.00;;
12784;SDS011;6456;42.680;23.260;2023-12-28T07:25:28;29.60;;;22.03;;
12784;SDS011;6456;42.680;23.260;2023-12-28T07:27:55;28.47;;;21.27;;
12784;SDS011;6456;42.680;23.260;2023-12-28T07:30:22;31.50;;;21.37;;
12784;SDS011;6456;42.680;23.260;2023-12-28T07:32:50;24.47;;;18.47;;
12784;SDS011;6456;42.680;23.260;2023-12-28T07:35:17;27.37;;;19.20;;
12784;SDS011;6456;42.680;23.260;2023-12-28T07:37:44;30.00;;;19.27;;
12784;SDS011;6456;42.680;23.260;2023-12-28T07:40:12;27.67;;;19.37;;
12784;SDS011;6456;42.680;23.260;2023-12-28T07:42:39;27.60;;;19.90;;
12784;SDS011;6456;42.680;23.260;2023-12-28T07:45:06;30.43;;;19.83;;
12784;SDS011;6456;42.680;23.260;2023-12-28T07:47:33;26.80;;;19.63;;
12784;SDS011;6456;42.680;23.260;2023-12-28T07:50:02;28.53;;;19.70;;
12784;SDS011;6456;42.680;23.260;2023-12-28T07:52:29;27.67;;;18.97;;
12784;SDS011;6456;42.680;23.260;2023-12-28T07:54:56;26.90;;;19.43;;
12784;SDS011;6456;42.680;23.260;2023-12-28T07:57:24;28.77;;;20.67;;
12784;SDS011;6456;42.680;23.260;2023-12-28T07:59:51;33.90;;;21.97;;
12784;SDS011;6456;42.680;23.260;2023-12-28T08:02:18;32.40;;;22.37;;
12784;SDS011;6456;42.680;23.260;2023-12-28T08:04:45;29.87;;;20.90;;
12784;SDS011;6456;42.680;23.260;2023-12-28T08:07:13;29.43;;;20.03;;
12784;SDS011;6456;42.680;23.260;2023-12-28T08:09:40;27.90;;;19.70;;
12784;SDS011;6456;42.680;23.260;2023-12-28T08:12:07;31.67;;;19.93;;
12784;SDS011;6456;42.680;23.260;2023-12-28T08:14:34;27.37;;;19.90;;
12784;SDS011;6456;42.680;23.260;2023-12-28T08:17:01;23.97;;;17.83;;
12784;SDS011;6456;42.680;23.260;2023-12-28T08:19:29;29.53;;;19.57;;
12784;SDS011;6456;42.680;23.260;2023-12-28T08:21:55;28.30;;;19.97;;
12784;SDS011;6456;42.680;23.260;2023-12-28T08:24:24;27.67;;;20.07;;
12784;SDS011;6456;42.680;23.260;2023-12-28T08:26:51;26.87;;;19.03;;
12784;SDS011;6456;42.680;23.260;2023-12-28T08:29:18;26.63;;;20.17;;
12784;SDS011;6456;42.680;23.260;2023-12-28T08:31:45;28.80;;;19.87;;
12784;SDS011;6456;42.680;23.260;2023-12-28T08:34:12;28.77;;;20.97;;
12784;SDS011;6456;42.680;23.260;2023-12-28T08:36:40;27.97;;;19.93;;
12784;SDS011;6456;42.680;23.260;2023-12-28T08:39:07;25.20;;;18.47;;
12784;SDS011;6456;42.680;23.260;2023-12-28T08:41:36;27.40;;;19.83;;
12784;SDS011;6456;42.680;23.260;2023-12-28T08:44:03;27.57;;;18.87;;
12784;SDS011;6456;42.680;23.260;2023-12-28T08:46:30;33.27;;;20.50;;
12784;SDS011;6456;42.680;23.260;2023-12-28T08:48:57;25.97;;;19.77;;
12784;SDS011;6456;42.680;23.260;2023-12-28T08:51:26;27.00;;;20.20;;
12784;SDS011;6456;42.680;23.260;2023-12-28T08:53:56;28.13;;;20.77;;
12784;SDS011;6456;42.680;23.260;2023-12-28T08:56:23;34.53;;;23.00;;
12784;SDS011;6456;42.680;23.260;2023-12-28T08:58:51;32.53;;;22.73;;
12784;SDS011;6456;42.680;23.260;2023-12-28T09:01:19;35.50;;;22.37;;
12784;SDS011;6456;42.680;23.260;2023-12-28T09:03:48;38.37;;;21.73;;
12784;SDS011;6456;42.680;23.260;2023-12-28T09:06:15;25.70;;;18.13;;
12784;SDS011;6456;42.680;23.260;2023-12-28T09:08:49;25.27;;;17.63;;
12784;SDS011;6456;42.680;23.260;2023-12-28T09:11:21;25.60;;;17.57;;
12784;SDS011;6456;42.680;23.260;2023-12-28T09:13:50;26.60;;;18.00;;
12784;SDS011;6456;42.680;23.260;2023-12-28T09:16:20;25.20;;;17.53;;
12784;SDS011;6456;42.680;23.260;2023-12-28T09:18:47;24.67;;;17.97;;
12784;SDS011;6456;42.680;23.260;2023-12-28T09:21:14;23.57;;;17.20;;
12784;SDS011;6456;42.680;23.260;2023-12-28T09:23:41;25.47;;;17.20;;
12784;SDS011;6456;42.680;23.260;2023-12-28T09:26:08;25.00;;;17.93;;
12784;SDS011;6456;42.680;23.260;2023-12-28T09:28:35;24.00;;;17.87;;
12784;SDS011;6456;42.680;23.260;2023-12-28T09:31:03;29.63;;;19.23;;
12784;SDS011;6456;42.680;23.260;2023-12-28T09:33:31;26.97;;;19.50;;
12784;SDS011;6456;42.680;23.260;2023-12-28T09:35:58;27.33;;;19.20;;
12784;SDS011;6456;42.680;23.260;2023-12-28T09:38:29;23.43;;;18.20;;
12784;SDS011;6456;42.680;23.260;2023-12-28T09:40:56;28.97;;;18.83;;
12784;SDS011;6456;42.680;23.260;2023-12-28T09:43:31;25.93;;;18.47;;
12784;SDS011;6456;42.680;23.260;2023-12-28T09:46:07;19.20;;;15.27;;
12784;SDS011;6456;42.680;23.260;2023-12-28T09:48:36;19.73;;;15.13;;
12784;SDS011;6456;42.680;23.260;2023-12-28T09:51:04;25.03;;;16.10;;
12784;SDS011;6456;42.680;23.260;2023-12-28T09:53:31;22.47;;;15.17;;
12784;SDS011;6456;42.680;23.260;2023-12-28T09:55:58;23.17;;;17.17;;
12784;SDS011;6456;42.680;23.260;2023-12-28T09:58:28;22.67;;;17.50;;
12784;SDS011;6456;42.680;23.260;2023-12-28T10:00:57;24.77;;;16.57;;
12784;SDS011;6456;42.680;23.260;2023-12-28T10:03:27;24.53;;;17.87;;
12784;SDS011;6456;42.680;23.260;2023-12-28T10:05:54;25.80;;;17.80;;
12784;SDS011;6456;42.680;23.260;2023-12-28T10:08:21;21.37;;;16.90;;
12784;SDS011;6456;42.680;23.260;2023-12-28T10:10:49;21.80;;;16.57;;
12784;SDS011;6456;42.680;23.260;2023-12-28T10:13:19;22.67;;;16.20;;
12784;SDS011;6456;42.680;23.260;2023-12-28T10:15:46;25.70;;;16.53;;
12784;SDS011;6456;42.680;23.260;2023-12-28T10:18:16;23.27;;;16.17;;
12784;SDS011;6456;42.680;23.260;2023-12-28T10:20:49;26.50;;;16.57;;
12784;SDS011;6456;42.680;23.260;2023-12-28T10:23:16;24.17;;;16.43;;
12784;SDS011;6456;42.680;23.260;2023-12-28T10:25:44;22.93;;;15.77;;
12784;SDS011;6456;42.680;23.260;2023-12-28T10:28:11;26.60;;;18.13;;
12784;SDS011;6456;42.680;23.260;2023-12-28T10:30:38;22.17;;;17.40;;
12784;SDS011;6456;42.680;23.260;2023-12-28T10:33:06;25.17;;;16.93;;
12784;SDS011;6456;42.680;23.260;2023-12-28T10:35:34;28.10;;;19.27;;
12784;SDS011;6456;42.680;23.260;2023-12-28T10:38:03;30.20;;;21.27;;
12784;SDS011;6456;42.680;23.260;2023-12-28T10:40:32;28.73;;;20.63;;
12784;SDS011;6456;42.680;23.260;2023-12-28T10:43:02;37.57;;;23.43;;
12784;SDS011;6456;42.680;23.260;2023-12-28T10:45:32;47.10;;;33.23;;
12784;SDS011;6456;42.680;23.260;2023-12-28T10:48:04;44.03;;;27.57;;
12784;SDS011;6456;42.680;23.260;2023-12-28T10:50:35;37.93;;;27.30;;
12784;SDS011;6456;42.680;23.260;2023-12-28T10:53:11;41.13;;;28.00;;
12784;SDS011;6456;42.680;23.260;2023-12-28T10:55:48;45.00;;;29.97;;
12784;SDS011;6456;42.680;23.260;2023-12-28T10:58:28;49.17;;;30.47;;
12784;SDS011;6456;42.680;23.260;2023-12-28T11:01:06;44.20;;;29.47;;
12784;SDS011;6456;42.680;23.260;2023-12-28T11:03:37;43.27;;;29.30;;
12784;SDS011;6456;42.680;23.260;2023-12-28T11:06:06;40.77;;;29.40;;
12784;SDS011;6456;42.680;23.260;2023-12-28T11:08:36;46.20;;;28.07;;
12784;SDS011;6456;42.680;23.260;2023-12-28T11:11:05;37.43;;;27.93;;
12784;SDS011;6456;42.680;23.260;2023-12-28T11:13:34;41.97;;;27.97;;
12784;SDS011;6456;42.680;23.260;2023-12-28T11:16:02;36.10;;;26.97;;
12784;SDS011;6456;42.680;23.260;2023-12-28T11:18:30;38.17;;;26.97;;
12784;SDS011;6456;42.680;23.260;2023-12-28T11:20:56;35.43;;;26.37;;
12784;SDS011;6456;42.680;23.260;2023-12-28T11:23:24;37.20;;;26.03;;
12784;SDS011;6456;42.680;23.260;2023-12-28T11:25:53;36.63;;;26.83;;
12784;SDS011;6456;42.680;23.260;2023-12-28T11:28:20;33.80;;;25.43;;
12784;SDS011;6456;42.680;23.260;2023-12-28T11:30:50;37.47;;;26.93;;
12784;SDS011;6456;42.680;23.260;2023-12-28T11:33:18;36.23;;;25.00;;
12784;SDS011;6456;42.680;23.260;2023-12-28T11:35:46;38.17;;;26.23;;
12784;SDS011;6456;42.680;23.260;2023-12-28T11:38:14;37.90;;;26.03;;
12784;SDS011;6456;42.680;23.260;2023-12-28T11:40:44;32.43;;;24.27;;
12784;SDS011;6456;42.680;23.260;2023-12-28T11:43:18;36.47;;;24.03;;
12784;SDS011;6456;42.680;23.260;2023-12-28T11:45:46;35.30;;;23.57;;
12784;SDS011;6456;42.680;23.260;2023-12-28T11:48:22;31.30;;;24.47;;
12784;SDS011;6456;42.680;23.260;2023-12-28T11:50:50;35.70;;;24.63;;
12784;SDS011;6456;42.680;23.260;2023-12-28T11:53:16;34.40;;;24.03;;
12784;SDS011;6456;42.680;23.260;2023-12-28T11:55:45;33.20;;;24.93;;
12784;SDS011;6456;42.680;23.260;2023-12-28T11:58:12;36.73;;;25.70;;
12784;SDS011;6456;42.680;23.260;2023-12-28T12:00:40;35.73;;;25.87;;
12784;SDS011;6456;42.680;23.260;2023-12-28T12:03:09;34.40;;;24.57;;
12784;SDS011;6456;42.680;23.260;2023-12-28T12:05:37;36.23;;;24.03;;
12784;SDS011;6456;42.680;23.260;2023-12-28T12:08:08;35.50;;;25.20;;
12784;SDS011;6456;42.680;23.260;2023-12-28T12:10:39;33.27;;;24.10;;
12784;SDS011;6456;42.680;23.260;2023-12-28T12:13:06;31.33;;;23.67;;
12784;SDS011;6456;42.680;23.260;2023-12-28T12:15:33;32.73;;;24.80;;
12784;SDS011;6456;42.680;23.260;2023-12-28T12:18:02;30.27;;;23.83;;
12784;SDS011;6456;42.680;23.260;2023-12-28T12:20:31;33.90;;;22.80;;
12784;SDS011;6456;42.680;23.260;2023-12-28T12:22:58;28.77;;;20.30;;
12784;SDS011;6456;42.680;23.260;2023-12-28T12:25:25;25.90;;;18.93;;
12784;SDS011;6456;42.680;23.260;2023-12-28T12:27:53;32.13;;;19.43;;
12784;SDS011;6456;42.680;23.260;2023-12-28T12:30:20;25.33;;;15.23;;
12784;SDS011;6456;42.680;23.260;2023-12-28T12:32:47;17.37;;;12.13;;
12784;SDS011;6456;42.680;23.260;2023-12-28T12:35:16;19.87;;;13.93;;
12784;SDS011;6456;42.680;23.260;2023-12-28T12:37:46;20.13;;;15.60;;
12784;SDS011;6456;42.680;23.260;2023-12-28T12:40:14;21.30;;;15.87;;
12784;SDS011;6456;42.680;23.260;2023-12-28T12:42:42;29.67;;;19.67;;
12784;SDS011;6456;42.680;23.260;2023-12-28T12:45:09;30.57;;;20.67;;
12784;SDS011;6456;42.680;23.260;2023-12-28T12:47:37;26.70;;;19.40;;
12784;SDS011;6456;42.680;23.260;2023-12-28T12:50:05;29.23;;;21.37;;
12784;SDS011;6456;42.680;23.260;2023-12-28T12:52:34;31.77;;;21.30;;
12784;SDS011;6456;42.680;23.260;2023-12-28T12:55:01;29.57;;;21.40;;
12784;SDS011;6456;42.680;23.260;2023-12-28T12:57:28;27.83;;;21.20;;
12784;SDS011;6456;42.680;23.260;2023-12-28T12:59:56;27.70;;;19.60;;
12784;SDS011;6456;42.680;23.260;2023-12-28T13:02:23;30.03;;;20.57;;
12784;SDS011;6456;42.680;23.260;2023-12-28T13:04:52;27.57;;;21.43;;
12784;SDS011;6456;42.680;23.260;2023-12-28T13:07:19;28.00;;;20.90;;
12784;SDS011;6456;42.680;23.260;2023-12-28T13:09:48;27.67;;;20.97;;
12784;SDS011;6456;42.680;23.260;2023-12-28T13:12:15;28.33;;;21.43;;
12784;SDS011;6456;42.680;23.260;2023-12-28T13:14:42;30.03;;;21.63;;
12784;SDS011;6456;42.680;23.260;2023-12-28T13:17:10;30.43;;;19.40;;
12784;SDS011;6456;42.680;23.260;2023-12-28T13:19:38;28.87;;;19.53;;
12784;SDS011;6456;42.680;23.260;2023-12-28T13:22:05;24.33;;;19.17;;
12784;SDS011;6456;42.680;23.260;2023-12-28T13:24:31;28.40;;;18.97;;
12784;SDS011;6456;42.680;23.260;2023-12-28T13:27:00;28.80;;;18.73;;
12784;SDS011;6456;42.680;23.260;2023-12-28T13:29:28;26.60;;;18.37;;
12784;SDS011;6456;42.680;23.260;2023-12-28T13:31:55;25.03;;;18.00;;
12784;SDS011;6456;42.680;23.260;2023-12-28T13:34:23;28.60;;;18.03;;
12784;SDS011;6456;42.680;23.260;2023-12-28T13:36:50;23.20;;;16.80;;
12784;SDS011;6456;42.680;23.260;2023-12-28T13:39:18;22.77;;;17.23;;
12784;SDS011;6456;42.680;23.260;2023-12-28T13:41:45;25.50;;;17.40;;
12784;SDS011;6456;42.680;23.260;2023-12-28T13:44:13;23.23;;;17.10;;
12784;SDS011;6456;42.680;23.260;2023-12-28T13:46:40;23.20;;;17.47;;
12784;SDS011;6456;42.680;23.260;2023-12-28T13:49:07;25.57;;;18.43;;
12784;SDS011;6456;42.680;23.260;2023-12-28T13:51:34;29.23;;;18.80;;
12784;SDS011;6456;42.680;23.260;2023-12-28T13:54:01;24.43;;;17.73;;
12784;SDS011;6456;42.680;23.260;2023-12-28T13:56:28;30.10;;;19.47;;
12784;SDS011;6456;42.680;23.260;2023-12-28T13:58:56;28.20;;;18.77;;
12784;SDS011;6456;42.680;23.260;2023-12-28T14:01:24;25.33;;;18.73;;
12784;SDS011;6456;42.680;23.260;2023-12-28T14:03:51;28.17;;;19.30;;
12784;SDS011;6456;42.680;23.260;2023-12-28T14:06:18;31.47;;;20.00;;
12784;SDS011;6456;42.680;23.260;2023-12-28T14:08:45;31.43;;;19.10;;
12784;SDS011;6456;42.680;23.260;2023-12-28T14:11:12;28.23;;;20.23;;
12784;SDS011;6456;42.680;23.260;2023-12-28T14:13:39;24.40;;;19.33;;
12784;SDS011;6456;42.680;23.260;2023-12-28T14:16:06;28.70;;;19.33;;
12784;SDS011;6456;42.680;23.260;2023-12-28T14:18:35;28.70;;;19.90;;
12784;SDS011;6456;42.680;23.260;2023-12-28T14:21:05;29.00;;;20.33;;
12784;SDS011;6456;42.680;23.260;2023-12-28T14:23:32;30.10;;;20.63;;
12784;SDS011;6456;42.680;23.260;2023-12-28T14:26:00;26.80;;;20.70;;